Time;durP1;ratioP1;P1;durP2;ratioP2;P2;SDS_P1;SDS_P2;PMS_P1;PMS_P2;Temp;Humidity;BMP_temperature;BMP_pressure;BME280_temperature;BME280_humidity;BME280_pressure;Samples;Min_cycle;Max_cycle;Signal;HPM_P1;HPM_P2
2021/04/17 00:02:10;;;;;;;10.87;8.97;;;1.10;99.90;;;1.29;40.56;94432.75;5086221;28;20201;-71
2021/04/17 00:04:39;;;;;;;11.27;9.47;;;0.70;99.90;;;1.27;41.02;94431.34;5056399;28;20178;-70
2021/04/17 00:07:19;;;;;;;10.83;9.40;;;0.70;99.90;;;1.25;41.02;94438.53;5040636;28;20637;-70
2021/04/17 00:09:50;;;;;;;9.70;8.20;;;0.70;99.90;;;1.23;40.88;94428.31;5072612;28;20244;-70
2021/04/17 00:12:26;;;;;;;11.47;9.30;;;0.60;99.90;;;1.21;40.70;94432.13;5100210;28;20294;-70
2021/04/17 00:14:58;;;;;;;11.23;9.50;;;0.60;99.90;;;1.16;41.10;94435.28;5075647;28;20177;-70
2021/04/17 00:17:30;;;;;;;11.30;9.47;;;0.60;99.90;;;1.10;40.82;94428.25;5073373;28;20548;-70
2021/04/17 00:19:57;;;;;;;11.17;9.57;;;0.50;99.90;;;1.09;41.44;94424.00;5042960;28;20204;-70
2021/04/17 00:22:23;;;;;;;11.10;9.73;;;0.50;99.90;;;1.10;40.91;94415.19;5073066;28;20809;-70
2021/04/17 00:24:54;;;;;;;11.63;9.33;;;0.50;99.90;;;1.08;40.97;94419.78;5042691;28;20181;-70
2021/04/17 00:27:25;;;;;;;12.00;9.73;;;0.70;99.90;;;0.98;41.88;94408.91;5052399;28;20192;-70
2021/04/17 00:29:51;;;;;;;11.93;9.70;;;0.60;99.90;;;0.98;40.95;94409.72;5070551;28;20193;-72
2021/04/17 00:32:17;;;;;;;14.37;10.97;;;0.40;99.90;;;0.92;41.54;94414.91;5081499;28;20222;-72
2021/04/17 00:34:43;;;;;;;12.13;9.60;;;0.30;99.90;;;0.83;41.57;94411.66;5090641;28;20221;-70
2021/04/17 00:37:10;;;;;;;13.37;10.63;;;0.30;99.90;;;0.83;41.62;94409.03;5066724;28;20188;-70
2021/04/17 00:39:38;;;;;;;11.97;9.57;;;0.20;99.90;;;0.83;41.73;94411.66;5092763;28;20179;-71
2021/04/17 00:42:07;;;;;;;12.03;10.50;;;0.20;99.90;;;0.80;41.69;94406.00;5081538;28;20291;-72
2021/04/17 00:44:37;;;;;;;13.40;10.47;;;0.20;99.90;;;0.85;41.27;94399.22;5057239;28;20166;-71
2021/04/17 00:47:08;;;;;;;13.03;11.30;;;0.20;99.90;;;0.84;41.42;94397.59;5074615;28;20187;-71
2021/04/17 00:49:34;;;;;;;15.13;11.53;;;0.20;99.90;;;0.74;42.01;94396.34;5072462;28;20211;-71
2021/04/17 00:52:03;;;;;;;13.47;10.83;;;0.20;99.90;;;0.68;42.11;94400.50;5044414;28;20546;-70
2021/04/17 00:54:31;;;;;;;12.97;11.00;;;0.10;99.90;;;0.71;41.63;94391.50;5054493;28;20186;-70
2021/04/17 00:56:59;;;;;;;13.37;11.27;;;0.10;99.90;;;0.65;42.08;94387.06;5062860;28;20264;-70
2021/04/17 00:59:25;;;;;;;13.77;10.63;;;0.80;99.90;;;0.68;42.29;94392.69;5037100;28;20186;-69
2021/04/17 01:01:53;;;;;;;14.10;11.27;;;0.10;99.90;;;0.71;41.86;94392.31;5090211;28;20553;-69
2021/04/17 01:04:39;;;;;;;15.23;11.17;;;0.10;99.90;;;0.72;42.42;94393.94;5072694;28;20553;-71
2021/04/17 01:07:26;;;;;;;13.80;11.10;;;0.20;99.90;;;0.73;42.32;94390.31;5064266;28;20551;-70
2021/04/17 01:10:14;;;;;;;15.53;12.03;;;0.10;99.90;;;0.68;42.05;94395.28;5069851;28;20187;-72
2021/04/17 01:12:44;;;;;;;15.27;11.47;;;0.10;99.90;;;0.62;42.45;94393.47;5071868;28;20186;-70
2021/04/17 01:15:13;;;;;;;14.33;11.50;;;0.00;99.90;;;0.55;42.18;94392.63;5079947;28;20183;-70
2021/04/17 01:17:41;;;;;;;15.87;11.67;;;0.00;99.90;;;0.56;42.84;94399.44;5074343;28;20629;-72
2021/04/17 01:20:12;;;;;;;16.37;12.50;;;1.00;99.90;;;0.57;42.85;94390.63;5054105;28;20179;-70
2021/04/17 01:22:42;;;;;;;16.50;11.80;;;0.00;99.90;;;0.56;42.37;94393.41;5055367;28;20191;-70
2021/04/17 01:25:19;;;;;;;14.73;12.13;;;1.00;99.90;;;0.49;42.73;94388.16;5072147;28;20224;-73
2021/04/17 01:27:47;;;;;;;14.03;11.33;;;-0.10;99.90;;;0.44;42.49;94385.31;5069724;28;20685;-70
2021/04/17 01:30:18;;;;;;;16.87;11.97;;;-0.10;99.90;;;0.42;43.04;94393.34;5088197;28;20500;-71
2021/04/17 01:32:45;;;;;;;15.03;11.77;;;-0.10;99.90;;;0.35;42.97;94389.88;5076625;28;20525;-70
2021/04/17 01:35:21;;;;;;;17.27;11.87;;;0.00;99.90;;;0.36;42.82;94395.91;5063936;28;20201;-71
2021/04/17 01:38:00;;;;;;;16.40;12.43;;;-0.20;99.90;;;0.30;42.93;94400.06;5073232;28;20217;-70
2021/04/17 01:40:31;;;;;;;16.73;12.90;;;-0.30;99.90;;;0.25;42.84;94388.59;5068502;28;20511;-70
2021/04/17 01:43:00;;;;;;;18.13;13.10;;;-0.30;99.90;;;0.17;42.92;94392.13;5053485;28;20159;-71
2021/04/17 01:45:29;;;;;;;15.47;12.87;;;-0.40;99.90;;;0.16;43.08;94398.38;5039522;28;20182;-70
2021/04/17 01:48:00;;;;;;;17.87;12.60;;;-0.40;99.90;;;0.06;43.16;94391.84;5070962;28;20233;-70
2021/04/17 01:50:31;;;;;;;17.93;13.50;;;-0.50;99.90;;;0.05;43.36;94383.22;5061606;28;20210;-70
2021/04/17 01:53:00;;;;;;;16.93;13.30;;;-0.50;99.90;;;-0.01;43.25;94392.63;5056546;28;20167;-71
2021/04/17 01:55:31;;;;;;;16.93;12.60;;;-0.60;99.90;;;-0.01;43.30;94392.63;5059224;28;20205;-70
2021/04/17 01:58:01;;;;;;;14.97;11.80;;;-0.50;99.90;;;-0.16;43.37;94389.25;5093648;28;20157;-70
2021/04/17 02:00:30;;;;;;;16.23;12.10;;;-0.60;99.90;;;-0.20;43.54;94397.66;5058029;28;20183;-70
2021/04/17 02:02:59;;;;;;;14.83;12.40;;;-0.70;99.90;;;-0.29;43.43;94390.94;5079702;28;20193;-69
2021/04/17 02:05:25;;;;;;;15.70;11.93;;;-0.70;99.90;;;-0.42;43.66;94403.81;5083922;28;20591;-70
2021/04/17 02:07:59;;;;;;;14.43;11.90;;;-0.90;99.90;;;-0.54;43.79;94393.91;5073323;28;20204;-71
2021/04/17 02:10:25;;;;;;;16.80;12.10;;;0.70;99.90;;;-0.53;43.75;94394.72;5063860;28;20212;-70
2021/04/17 02:12:51;;;;;;;16.13;12.20;;;-1.00;99.90;;;-0.65;44.09;94398.78;5056502;28;20651;-70
2021/04/17 02:15:17;;;;;;;14.87;11.57;;;-1.10;99.90;;;-0.73;43.60;94399.69;5066435;28;20239;-70
2021/04/17 02:18:07;;;;;;;14.57;11.20;;;-1.10;99.90;;;-0.76;43.88;94397.47;5063554;28;20210;-71
2021/04/17 02:20:43;;;;;;;15.20;12.37;;;-1.10;99.90;;;-0.82;43.72;94393.00;5045484;28;20213;-69
2021/04/17 02:23:11;;;;;;;15.77;12.13;;;-1.00;99.90;;;-0.85;43.89;94401.19;5056610;28;20162;-70
2021/04/17 02:25:38;;;;;;;14.30;12.03;;;-1.40;99.90;;;-1.00;44.03;94395.19;5066443;28;20186;-70
2021/04/17 02:28:07;;;;;;;14.70;11.83;;;-1.40;99.90;;;-1.05;43.76;94387.94;5078929;28;20186;-70
2021/04/17 02:30:38;;;;;;;16.67;11.60;;;-1.00;99.90;;;-0.98;44.26;94380.22;5070284;28;20680;-69
2021/04/17 02:33:11;;;;;;;16.20;11.67;;;-1.40;99.90;;;-1.06;43.84;94385.50;5079423;28;20582;-70
2021/04/17 02:35:39;;;;;;;16.80;12.40;;;-1.50;99.90;;;-1.11;44.19;94388.63;5070441;28;20201;-70
2021/04/17 02:38:07;;;;;;;16.60;12.43;;;-1.50;99.90;;;-1.00;44.08;94391.75;5039731;28;20168;-71
2021/04/17 02:40:33;;;;;;;16.20;11.53;;;-1.10;99.90;;;-1.05;44.15;94387.13;5057111;28;20212;-69
2021/04/17 02:42:59;;;;;;;16.33;11.90;;;-1.50;99.90;;;-1.13;43.84;94402.81;5072736;28;20163;-69
2021/04/17 02:45:27;;;;;;;18.73;13.20;;;-0.40;99.90;;;-1.24;43.93;94404.06;5079746;28;20210;-70
2021/04/17 02:47:57;;;;;;;17.57;11.97;;;-1.60;99.90;;;-1.27;44.26;94399.25;5071839;28;20576;-69
2021/04/17 02:50:26;;;;;;;16.23;12.53;;;-1.80;99.90;;;-1.30;44.31;94393.59;5069683;28;20221;-70
2021/04/17 02:52:53;;;;;;;19.27;12.37;;;-1.80;99.90;;;-1.38;44.21;94397.13;5062655;28;20523;-69
2021/04/17 02:55:20;;;;;;;17.57;12.97;;;-1.80;99.90;;;-1.43;44.55;94406.41;5065254;28;20182;-70
2021/04/17 02:57:47;;;;;;;18.27;12.53;;;-1.80;99.90;;;-1.56;44.67;94404.44;5090923;28;20180;-69
2021/04/17 03:00:24;;;;;;;17.10;13.30;;;-1.90;99.90;;;-1.55;44.80;94400.88;5058185;28;20185;-70
2021/04/17 03:02:52;;;;;;;19.13;13.30;;;-1.90;99.90;;;-1.58;44.58;94388.25;5067489;28;20645;-69
2021/04/17 03:05:21;;;;;;;18.50;13.47;;;-1.90;99.90;;;-1.67;44.84;94392.69;5094253;28;20183;-70
2021/04/17 03:07:50;;;;;;;20.77;13.40;;;-2.00;99.90;;;-1.66;44.52;94390.91;5089351;28;20189;-70
2021/04/17 03:10:17;;;;;;;18.87;13.57;;;-2.00;99.90;;;-1.64;44.79;94391.53;5071119;28;20244;-71
2021/04/17 03:12:46;;;;;;;20.73;14.70;;;-1.90;99.90;;;-1.55;44.80;94395.66;5072777;28;20550;-70
2021/04/17 03:15:13;;;;;;;19.27;14.03;;;-1.40;99.90;;;-1.56;45.13;94386.25;5090356;28;20239;-69
2021/04/17 03:17:45;;;;;;;24.90;16.33;;;-2.00;99.90;;;-1.49;45.20;94383.75;5074607;28;20241;-68
2021/04/17 03:20:12;;;;;;;20.37;14.10;;;-1.50;99.90;;;-1.55;45.07;94380.09;5055538;28;20219;-69
2021/04/17 03:22:38;;;;;;;21.83;15.57;;;-2.00;99.90;;;-1.52;44.94;94392.72;5057407;28;20640;-68
2021/04/17 03:25:10;;;;;;;20.43;14.80;;;-2.00;99.90;;;-1.58;45.22;94378.63;5075662;28;20221;-69
2021/04/17 03:27:37;;;;;;;22.53;14.63;;;-2.00;99.90;;;-1.55;45.26;94387.88;5056304;28;20186;-69
2021/04/17 03:30:14;;;;;;;23.00;15.20;;;-2.00;99.90;;;-1.69;45.09;94386.06;5055703;28;20214;-69
2021/04/17 03:32:41;;;;;;;23.10;14.60;;;-2.10;99.90;;;-1.62;45.44;94386.97;5052264;28;20194;-69
2021/04/17 03:35:10;;;;;;;18.93;13.53;;;-0.60;99.90;;;-1.69;45.36;94381.69;5075558;28;20593;-70
2021/04/17 03:37:37;;;;;;;22.93;15.00;;;-2.10;99.90;;;-1.83;45.52;94386.84;5055925;28;20539;-69
2021/04/17 03:40:07;;;;;;;19.93;14.17;;;-2.20;99.90;;;-1.98;45.77;94386.81;5041201;28;20661;-69
2021/04/17 03:42:43;;;;;;;21.30;15.17;;;-2.30;99.90;;;-1.96;45.75;94397.84;5075563;28;20604;-69
2021/04/17 03:45:10;;;;;;;22.03;14.60;;;-2.30;99.90;;;-1.98;45.31;94394.59;5094184;28;20644;-69
2021/04/17 03:47:41;;;;;;;23.80;15.13;;;-2.30;99.90;;;-2.01;45.38;94396.78;5066671;28;20195;-68
2021/04/17 03:50:09;;;;;;;21.33;14.90;;;-2.40;99.90;;;-1.88;45.86;94407.38;5038970;28;20218;-70
2021/04/17 03:52:35;;;;;;;23.37;15.63;;;-2.30;99.90;;;-1.76;45.70;94395.56;5088403;28;20237;-69
2021/04/17 03:55:04;;;;;;;24.20;16.53;;;-2.00;99.90;;;-1.75;45.66;94399.78;5059570;28;20178;-69
2021/04/17 03:57:36;;;;;;;24.43;16.23;;;-1.10;99.90;;;-1.78;45.69;94400.91;5083386;28;20558;-69
2021/04/17 04:00:06;;;;;;;20.27;14.73;;;-2.30;99.90;;;-1.93;46.18;94396.69;5073941;28;20175;-69
2021/04/17 04:02:37;;;;;;;22.03;15.83;;;-2.30;99.90;;;-1.88;46.04;94400.34;5074806;28;20193;-69
2021/04/17 04:05:07;;;;;;;20.47;14.07;;;-2.30;99.90;;;-1.87;46.20;94411.56;5089247;28;20235;-69
2021/04/17 04:07:33;;;;;;;23.43;16.20;;;-2.30;99.90;;;-1.81;46.43;94410.84;5089630;28;20182;-69
2021/04/17 04:10:00;;;;;;;22.37;14.67;;;-2.30;99.90;;;-1.84;46.32;94399.03;5075270;28;20181;-69
2021/04/17 04:12:26;;;;;;;22.87;15.10;;;-2.30;99.90;;;-1.91;46.63;94408.50;5056617;28;20272;-69
2021/04/17 04:14:52;;;;;;;22.47;15.60;;;-2.40;99.90;;;-2.02;46.52;94408.94;5065115;28;20186;-69
2021/04/17 04:17:18;;;;;;;25.13;15.03;;;-2.50;99.90;;;-1.99;46.64;94408.59;5056203;28;20213;-68
2021/04/17 04:19:44;;;;;;;22.97;16.17;;;-2.20;99.90;;;-2.01;46.72;94409.75;5084170;28;20321;-68
2021/04/17 04:22:10;;;;;;;23.73;16.23;;;-0.60;99.90;;;-2.09;46.17;94408.84;5094527;28;20182;-69
2021/04/17 04:24:42;;;;;;;20.93;15.23;;;-2.50;99.90;;;-2.02;46.11;94413.31;5079471;28;20190;-69
2021/04/17 04:27:09;;;;;;;22.70;15.40;;;-1.70;99.90;;;-2.01;46.73;94417.53;5061397;28;20187;-68
2021/04/17 04:29:37;;;;;;;22.43;13.80;;;-2.50;99.90;;;-2.10;46.36;94416.78;5063898;28;20686;-71
2021/04/17 04:32:04;;;;;;;22.03;14.90;;;-2.50;99.90;;;-2.12;46.78;94410.97;5057395;28;20206;-69
2021/04/17 04:34:30;;;;;;;22.43;15.43;;;-2.50;99.90;;;-2.10;46.36;94415.00;5090682;28;20273;-68
2021/04/17 04:36:58;;;;;;;21.33;14.80;;;-2.60;99.90;;;-2.12;46.72;94416.97;5073234;28;20755;-68
2021/04/17 04:39:24;;;;;;;21.67;14.93;;;-2.60;99.90;;;-2.14;47.25;94412.91;5058875;28;20206;-69
2021/04/17 04:41:50;;;;;;;20.63;14.43;;;-2.60;99.90;;;-2.15;46.98;94424.31;5072814;28;20183;-69
2021/04/17 04:44:16;;;;;;;22.60;14.90;;;-2.50;99.90;;;-2.12;46.63;94423.97;5074627;28;20832;-70
2021/04/17 04:46:42;;;;;;;23.07;14.63;;;-2.50;99.90;;;-2.14;46.91;94418.94;5052729;28;20194;-68
2021/04/17 04:49:11;;;;;;;21.13;14.07;;;-1.80;99.90;;;-2.14;47.19;94420.72;5058060;28;20201;-70
2021/04/17 04:51:37;;;;;;;21.73;14.60;;;-2.10;99.90;;;-2.17;46.99;94428.84;5100267;28;20199;-69
2021/04/17 04:54:03;;;;;;;19.93;14.23;;;-2.20;99.90;;;-2.20;46.63;94432.59;5056195;28;20235;-70
2021/04/17 04:56:34;;;;;;;21.90;14.70;;;-2.60;99.90;;;-2.10;47.24;94435.78;5083753;28;20256;-70
2021/04/17 04:59:00;;;;;;;23.73;15.47;;;-2.60;99.90;;;-1.98;47.35;94437.97;5058029;28;20171;-69
2021/04/17 05:01:30;;;;;;;23.53;15.33;;;-2.50;99.90;;;-1.95;47.35;94445.41;5077073;28;20205;-69
2021/04/17 05:03:56;;;;;;;22.57;14.00;;;-2.40;99.90;;;-1.88;47.53;94441.13;5077015;28;20187;-70
2021/04/17 05:06:24;;;;;;;20.97;14.17;;;-2.40;99.90;;;-1.74;47.52;94438.53;5070715;28;20186;-70
2021/04/17 05:08:54;;;;;;;18.00;13.20;;;-2.30;99.90;;;-1.72;47.17;94444.38;5070770;28;20180;-69
2021/04/17 05:11:20;;;;;;;19.13;13.93;;;-1.70;99.90;;;-1.75;47.46;94436.13;5091607;28;20194;-69
2021/04/17 05:13:48;;;;;;;22.10;14.87;;;-1.70;99.90;;;-1.63;47.65;94440.72;5056190;28;20677;-70
2021/04/17 05:16:15;;;;;;;21.30;14.40;;;-1.50;99.90;;;-1.49;47.88;94446.09;5038491;28;20183;-71
2021/04/17 05:18:47;;;;;;;21.43;14.17;;;-2.00;99.90;;;-1.39;47.68;94449.25;5072039;28;20164;-69
2021/04/17 05:21:13;;;;;;;18.93;13.23;;;-1.90;99.90;;;-1.30;47.76;94450.78;5071270;28;20189;-69
2021/04/17 05:23:40;;;;;;;19.93;14.30;;;-1.80;99.90;;;-1.19;47.65;94451.16;5093714;28;20180;-69
2021/04/17 05:26:09;;;;;;;21.00;14.50;;;-1.70;99.90;;;-1.15;48.12;94444.63;5065513;28;20198;-70
2021/04/17 05:28:38;;;;;;;20.17;14.53;;;-1.70;99.90;;;-1.05;48.13;94444.34;5053515;28;20163;-68
2021/04/17 05:31:04;;;;;;;18.73;13.23;;;-1.50;99.90;;;-0.93;47.98;94457.69;5072099;28;20203;-69
2021/04/17 05:33:30;;;;;;;21.10;14.33;;;-1.30;99.90;;;-0.67;47.83;94458.03;5089544;28;20204;-69
2021/04/17 05:35:55;;;;;;;21.33;14.57;;;-1.20;99.90;;;-0.58;47.91;94456.94;5085829;28;20208;-68
2021/04/17 05:38:23;;;;;;;21.40;14.70;;;-1.10;99.90;;;-0.44;48.17;94445.69;5056769;28;20182;-70
2021/04/17 05:40:54;;;;;;;23.27;15.23;;;0.90;99.90;;;-0.17;48.02;94450.13;5072734;28;20773;-68
2021/04/17 05:43:21;;;;;;;21.70;15.00;;;0.40;99.90;;;-0.09;48.39;94442.22;5087014;28;20191;-68
2021/04/17 05:45:47;;;;;;;24.37;16.80;;;-0.60;99.90;;;0.16;48.76;94450.47;5074837;28;20197;-69
2021/04/17 05:48:13;;;;;;;21.63;15.83;;;0.60;99.90;;;0.40;48.39;94446.66;5061407;28;20196;-69
2021/04/17 05:50:42;;;;;;;20.30;15.03;;;-0.10;99.90;;;0.57;48.61;94447.19;5047795;28;20834;-69
2021/04/17 05:53:10;;;;;;;21.60;14.97;;;0.00;99.90;;;0.71;48.79;94443.66;5087054;28;20217;-69
2021/04/17 05:55:36;;;;;;;22.37;16.60;;;0.20;99.90;;;0.76;48.36;94452.53;5057853;28;20186;-68
2021/04/17 05:58:03;;;;;;;22.17;15.87;;;0.30;99.90;;;1.02;48.98;94436.22;5068300;28;20271;-68
2021/04/17 06:00:29;;;;;;;23.10;16.83;;;0.60;99.90;;;1.30;48.33;94451.81;5077109;28;20172;-69
2021/04/17 06:02:57;;;;;;;25.10;17.20;;;0.80;99.90;;;1.67;49.21;94442.72;5076940;28;20191;-69
2021/04/17 06:05:23;;;;;;;22.30;16.43;;;1.10;99.90;;;1.89;48.63;94454.63;5076992;28;20180;-70
2021/04/17 06:07:50;;;;;;;22.20;16.67;;;1.40;99.90;;;2.13;48.77;94451.47;5059981;28;20207;-70
2021/04/17 06:10:19;;;;;;;21.73;16.53;;;1.70;99.90;;;2.54;48.71;94453.91;5075081;28;20187;-70
2021/04/17 06:12:45;;;;;;;23.23;16.53;;;2.00;99.90;;;2.86;49.18;94439.19;5056684;28;20192;-70
2021/04/17 06:15:14;;;;;;;23.03;17.13;;;2.40;99.90;;;3.42;49.20;94474.31;5056827;28;20205;-70
2021/04/17 06:17:43;;;;;;;20.90;16.10;;;2.80;99.90;;;4.42;49.53;94468.38;5068395;28;20179;-70
2021/04/17 06:20:10;;;;;;;19.10;15.60;;;3.60;99.90;;;5.93;49.93;94477.44;5080038;28;20309;-70
2021/04/17 06:22:36;;;;;;;20.07;15.20;;;5.00;99.90;;;6.86;49.94;94475.09;5093598;28;20264;-70
2021/04/17 06:25:04;;;;;;;18.10;14.90;;;6.10;99.90;;;8.17;49.81;94475.28;5039465;28;20260;-71
2021/04/17 06:27:30;;;;;;;18.90;15.20;;;7.60;99.90;;;8.85;50.42;94423.41;5103451;28;20292;-71
2021/04/17 06:30:01;;;;;;;15.37;13.63;;;8.60;99.90;;;8.98;50.29;94415.97;5089496;28;21670;-71
2021/04/17 06:32:27;;;;;;;18.50;15.97;;;9.20;99.90;;;8.26;50.19;94384.09;5055815;28;20346;-72
2021/04/17 06:34:53;;;;;;;18.10;16.13;;;8.90;99.90;;;7.79;49.28;94439.97;5065646;28;20207;-73
2021/04/17 06:37:19;;;;;;;19.97;16.37;;;8.40;99.90;;;7.26;49.90;94419.88;5089242;28;20211;-74
2021/04/17 06:39:45;;;;;;;17.97;16.07;;;7.80;99.90;;;7.44;49.63;94445.31;5087909;28;20216;-71
2021/04/17 06:42:15;;;;;;;17.40;14.57;;;7.70;99.90;;;8.46;49.18;94483.25;5064975;28;20201;-70
2021/04/17 06:44:43;;;;;;;16.40;14.70;;;8.10;99.90;;;9.08;50.02;94431.16;5052541;28;20194;-70
2021/04/17 06:47:15;;;;;;;18.80;14.87;;;8.80;99.90;;;8.74;50.23;94398.66;5052052;28;20187;-69
2021/04/17 06:49:42;;;;;;;16.63;14.93;;;8.70;99.90;;;8.08;49.46;94397.53;5062203;28;20250;-69
2021/04/17 06:52:13;;;;;;;16.53;14.57;;;8.20;99.90;;;7.56;49.26;94422.34;5076047;28;20209;-70
2021/04/17 06:54:39;;;;;;;18.40;15.60;;;7.70;99.90;;;7.33;49.74;94411.84;5077086;28;20177;-70
2021/04/17 06:57:07;;;;;;;18.27;15.87;;;7.50;99.90;;;7.02;49.31;94408.53;5056639;28;20283;-70
2021/04/17 06:59:34;;;;;;;17.67;15.43;;;7.20;99.90;;;6.84;50.05;94408.66;5055157;28;20205;-70
2021/04/17 07:02:00;;;;;;;17.67;15.77;;;7.00;99.90;;;8.04;49.19;94435.97;5069868;28;20182;-71
2021/04/17 07:04:27;;;;;;;17.87;15.17;;;7.60;99.90;;;10.07;49.82;94498.94;5057790;28;20614;-71
2021/04/17 07:06:53;;;;;;;16.07;14.43;;;9.20;99.90;;;11.87;49.83;94481.50;5085728;28;20204;-69
2021/04/17 07:09:25;;;;;;;16.10;14.47;;;11.20;99.90;;;12.56;49.95;94439.50;5077073;28;20281;-68
2021/04/17 07:11:55;;;;;;;16.53;14.93;;;12.40;99.90;;;13.25;49.69;94426.56;5069751;28;20204;-70
2021/04/17 07:14:24;;;;;;;16.80;15.07;;;13.40;96.40;;;11.88;49.69;94362.81;5054020;28;20207;-69
2021/04/17 07:17:06;;;;;;;17.33;15.60;;;12.70;94.80;;;11.62;49.47;94452.13;5090790;28;20190;-69
2021/04/17 07:20:01;;;;;;;17.03;15.33;;;12.10;96.20;;;10.51;49.51;94411.50;5067236;28;20191;-69
2021/04/17 07:22:29;;;;;;;16.73;15.13;;;11.40;96.70;;;12.11;49.46;94489.88;5071687;28;20186;-75
2021/04/17 07:25:18;;;;;;;16.20;14.63;;;12.20;97.00;;;14.30;49.26;94437.19;5049151;28;20205;-74
2021/04/17 07:27:48;;;;;;;16.60;15.00;;;14.20;92.50;;;14.80;49.66;94388.09;5066094;28;20184;-77
2021/04/17 07:30:17;;;;;;;18.03;16.33;;;15.40;89.50;;;12.97;49.71;94347.22;5076185;28;20265;-68
2021/04/17 07:32:48;;;;;;;17.80;16.10;;;14.20;88.40;;;12.13;49.46;94381.44;5084450;28;20186;-70
2021/04/17 07:35:23;;;;;;;17.60;15.80;;;13.40;90.90;;;11.31;49.13;94422.72;5083156;28;20292;-69
2021/04/17 07:38:17;;;;;;;18.13;16.33;;;12.60;91.80;;;10.91;48.85;94421.66;5072852;28;20193;-69
2021/04/17 07:40:59;;;;;;;17.93;16.23;;;12.10;92.60;;;9.72;49.01;94390.78;5053690;28;20686;-69
2021/04/17 07:43:47;;;;;;;18.23;16.43;;;10.90;94.00;;;8.70;49.09;94382.47;5081127;28;20266;-68
2021/04/17 07:46:13;;;;;;;19.10;17.10;;;9.70;96.40;;;8.00;49.05;94394.44;5064802;28;20271;-68
2021/04/17 07:48:40;;;;;;;17.67;15.87;;;8.80;98.90;;;7.89;48.72;94414.56;5094190;28;20949;-70
2021/04/17 07:51:08;;;;;;;18.20;16.37;;;8.40;99.90;;;8.43;48.18;94471.31;5061570;28;20255;-69
2021/04/17 07:53:42;;;;;;;17.70;15.87;;;8.50;99.90;;;8.62;48.74;94441.03;5078583;28;20175;-69
2021/04/17 07:56:24;;;;;;;19.67;16.30;;;8.70;99.90;;;9.20;48.85;94467.03;5048390;28;20173;-71
2021/04/17 07:58:59;;;;;;;17.87;16.07;;;9.20;99.90;;;9.68;48.85;94447.09;5072563;28;20686;-69
2021/04/17 08:01:28;;;;;;;18.57;16.67;;;9.60;99.90;;;10.06;48.62;94464.78;5063891;28;20204;-71
2021/04/17 08:03:56;;;;;;;17.83;15.93;;;9.90;99.20;;;11.76;48.91;94493.13;5069820;28;20209;-69
2021/04/17 08:06:27;;;;;;;16.97;15.20;;;11.20;97.70;;;12.68;48.67;94428.63;5054597;28;20183;-70
2021/04/17 08:08:57;;;;;;;16.17;14.57;;;12.40;94.40;;;15.32;48.85;94500.34;5038054;28;20174;-69
2021/04/17 08:11:29;;;;;;;16.30;14.70;;;14.20;91.40;;;17.33;48.81;94476.94;5059383;28;20217;-68
2021/04/17 08:13:57;;;;;;;16.23;14.73;;;17.20;83.30;;;17.41;48.80;94433.41;5071068;28;20170;-69
2021/04/17 08:16:24;;;;;;;16.43;14.83;;;17.70;76.00;;;16.95;48.80;94432.53;5072903;28;20183;-68
2021/04/17 08:18:52;;;;;;;16.87;15.37;;;17.60;76.20;;;17.01;48.37;94484.94;5037583;28;20222;-68
2021/04/17 08:21:20;;;;;;;16.70;15.10;;;17.80;74.40;;;15.55;48.43;94359.13;5038436;28;20185;-69
2021/04/17 08:23:52;;;;;;;16.50;14.90;;;17.20;72.90;;;14.81;48.34;94406.50;5086428;28;20697;-69
2021/04/17 08:26:19;;;;;;;18.23;16.47;;;16.10;76.30;;;14.21;48.32;94396.94;5067674;28;20506;-69
2021/04/17 08:28:51;;;;;;;17.23;15.63;;;15.60;78.70;;;15.93;48.15;94483.81;5074182;28;20174;-68
2021/04/17 08:31:27;;;;;;;17.50;15.80;;;16.60;78.00;;;16.58;48.09;94447.53;5074125;28;20213;-69
2021/04/17 08:34:20;;;;;;;18.00;16.40;;;17.40;75.30;;;15.90;48.09;94372.09;5073166;28;20186;-71
2021/04/17 08:37:02;;;;;;;17.00;15.50;;;17.40;73.10;;;14.56;47.94;94384.53;5070178;28;20266;-69
2021/04/17 08:39:34;;;;;;;17.67;15.97;;;16.10;75.50;;;13.71;48.00;94351.88;5073871;28;20161;-70
2021/04/17 08:42:09;;;;;;;17.40;15.80;;;15.10;78.20;;;14.74;47.83;94446.03;5092140;28;20795;-68
2021/04/17 08:44:39;;;;;;;16.83;15.33;;;15.50;78.00;;;15.88;47.55;94406.38;5057291;28;20159;-67
2021/04/17 08:47:43;;;;;;;17.30;15.80;;;16.50;75.30;;;16.04;47.50;94380.22;5061810;28;20185;-69
2021/04/17 08:50:30;;;;;;;17.10;15.60;;;17.40;73.20;;;15.50;47.35;94444.69;5068461;28;20218;-68
2021/04/17 08:53:04;;;;;;;16.37;14.97;;;16.30;74.30;;;15.17;47.05;94380.31;5060611;28;20198;-69
2021/04/17 08:55:53;;;;;;;17.77;15.87;;;16.30;75.10;;;14.22;47.54;94419.88;5067399;28;20704;-68
2021/04/17 08:58:22;;;;;;;17.53;15.83;;;15.40;77.50;;;13.97;47.62;94350.69;5072523;28;20202;-68
2021/04/17 09:00:51;;;;;;;16.83;15.27;;;15.20;77.50;;;13.50;47.17;94379.66;5074139;28;20174;-68
2021/04/17 09:03:49;;;;;;;18.60;16.90;;;14.50;79.10;;;13.20;46.63;94461.13;5086854;28;20248;-67
2021/04/17 09:06:24;;;;;;;21.30;19.40;;;14.00;80.80;;;16.43;47.05;94502.00;5056924;28;20669;-68
2021/04/17 09:09:15;;;;;;;17.23;15.73;;;16.10;77.10;;;16.89;47.03;94394.31;5088546;28;20728;-68
2021/04/17 09:11:48;;;;;;;16.67;14.97;;;17.60;71.30;;;16.17;46.92;94379.53;5094701;28;20538;-69
2021/04/17 09:14:31;;;;;;;16.77;15.27;;;17.20;70.80;;;18.82;46.71;94446.84;5056508;28;20167;-68
2021/04/17 09:17:00;;;;;;;16.57;14.90;;;19.70;67.40;;;21.31;46.55;94456.16;5093321;28;20515;-67
2021/04/17 09:19:41;;;;;;;16.73;15.03;;;22.50;61.40;;;20.28;46.58;94356.31;5072291;28;20275;-71
2021/04/17 09:22:30;;;;;;;17.87;16.20;;;22.50;57.20;;;22.24;46.19;94450.91;5078366;28;20197;-69
2021/04/17 09:25:05;;;;;;;17.17;15.77;;;23.80;55.50;;;23.99;46.48;94424.72;5075452;28;20669;-71
2021/04/17 09:27:38;;;;;;;16.47;15.10;;;26.00;54.60;;;22.91;45.89;94359.00;5089032;28;20216;-71
2021/04/17 09:30:13;;;;;;;15.90;14.63;;;25.70;51.60;;;23.51;45.58;94344.16;5075964;28;20193;-72
2021/04/17 09:32:43;;;;;;;16.40;14.93;;;25.80;49.60;;;23.70;45.79;94378.84;5078217;28;20187;-72
2021/04/17 09:35:41;;;;;;;16.43;15.13;;;26.20;50.50;;;24.18;45.04;94395.19;5076984;28;20222;-71
2021/04/17 09:38:15;;;;;;;15.47;13.97;;;26.70;49.20;;;25.10;45.10;94370.16;5068987;28;20221;-70
2021/04/17 09:40:51;;;;;;;15.80;14.50;;;27.70;47.70;;;25.44;45.13;94335.09;5083986;28;20699;-72
2021/04/17 09:43:27;;;;;;;15.23;14.00;;;28.30;46.60;;;24.13;44.61;94386.50;5057756;28;20179;-70
2021/04/17 09:45:56;;;;;;;15.13;13.83;;;27.30;46.40;;;24.72;44.36;94352.38;5066911;28;20265;-70
2021/04/17 09:48:25;;;;;;;14.83;13.63;;;27.70;46.00;;;25.25;44.19;94372.94;5094449;28;20189;-72
2021/04/17 09:50:56;;;;;;;14.57;13.40;;;28.60;45.40;;;24.13;43.79;94265.41;5076864;28;20237;-71
2021/04/17 09:53:34;;;;;;;14.87;13.60;;;27.60;45.30;;;24.95;43.48;94404.22;5076617;28;20201;-71
2021/04/17 09:56:12;;;;;;;14.87;13.67;;;27.70;46.50;;;25.93;43.54;94408.19;5072802;28;20174;-69
2021/04/17 09:58:45;;;;;;;14.83;13.63;;;28.20;44.70;;;26.32;43.00;94369.25;5071520;28;20186;-70
2021/04/17 10:01:15;;;;;;;13.80;12.70;;;29.20;43.70;;;26.39;42.95;94371.34;5067498;28;20279;-71
2021/04/17 10:03:44;;;;;;;13.87;12.70;;;28.90;44.50;;;24.80;42.70;94131.03;5069563;28;20623;-68
2021/04/17 10:06:35;;;;;;;14.13;13.03;;;28.30;43.40;;;25.12;42.38;94310.91;5065596;28;20242;-69
2021/04/17 10:09:08;;;;;;;14.50;13.23;;;28.60;43.30;;;24.86;42.20;94387.28;5069634;28;20183;-71
2021/04/17 10:11:36;;;;;;;14.33;13.23;;;27.70;44.60;;;25.03;41.94;94376.19;5085542;28;20197;-70
2021/04/17 10:14:05;;;;;;;13.87;12.77;;;27.40;45.00;;;25.16;42.08;94263.75;5075427;28;20192;-73
2021/04/17 10:16:35;;;;;;;14.20;13.00;;;27.70;45.50;;;22.97;41.57;94300.09;5062957;28;20737;-68
2021/04/17 10:19:03;;;;;;;14.93;13.50;;;26.10;46.30;;;21.88;41.53;94356.06;5067412;28;20240;-71
2021/04/17 10:21:35;;;;;;;13.80;12.50;;;24.30;48.30;;;24.10;41.22;94398.78;5091269;28;20194;-69
2021/04/17 10:24:31;;;;;;;12.87;11.87;;;25.70;47.30;;;25.62;40.67;94362.72;5064095;28;20182;-73
2021/04/17 10:27:04;;;;;;;12.70;11.43;;;27.30;46.00;;;25.69;40.70;94427.31;5054113;28;20584;-69